createdAt,value
2023-04-04T00:02:19.741Z,8.45
2023-04-04T00:04:46.830Z,10.43
2023-04-04T00:07:13.864Z,10.55
2023-04-04T00:09:40.957Z,9.55
2023-04-04T00:12:08.035Z,10.57
2023-04-04T00:14:35.284Z,9.43
2023-04-04T00:17:02.293Z,13.68
2023-04-04T00:19:29.328Z,8.68
2023-04-04T00:21:56.414Z,8.88
2023-04-04T00:24:23.480Z,11.27
2023-04-04T00:26:50.540Z,9.75
2023-04-04T00:29:17.545Z,9.43
2023-04-04T00:31:44.650Z,7.80
2023-04-04T00:34:11.748Z,11.38
2023-04-04T00:36:38.766Z,7.50
2023-04-04T00:39:05.776Z,8.80
2023-04-04T00:41:32.878Z,9.23
2023-04-04T00:43:59.935Z,11.10
2023-04-04T00:46:27.954Z,9.25
2023-04-04T00:48:55.269Z,7.78
2023-04-04T00:51:22.738Z,9.88
2023-04-04T00:53:50.877Z,9.02
2023-04-04T00:56:18.127Z,9.55
2023-04-04T00:58:45.608Z,10.70
2023-04-04T01:01:12.824Z,9.07
2023-04-04T01:03:40.410Z,7.75
2023-04-04T01:06:09.036Z,7.72
2023-04-04T01:08:38.062Z,8.10
2023-04-04T01:11:06.149Z,9.15
2023-04-04T01:13:33.807Z,9.63
2023-04-04T01:16:01.611Z,10.00
2023-04-04T01:18:29.349Z,7.25
2023-04-04T01:21:04.679Z,8.55
2023-04-04T01:23:40.821Z,9.35
2023-04-04T01:26:08.017Z,10.38
2023-04-04T01:28:35.580Z,10.20
2023-04-04T01:31:03.099Z,10.48
2023-04-04T01:33:32.461Z,8.60
2023-04-04T01:36:02.370Z,7.90
2023-04-04T01:38:29.393Z,9.65
2023-04-04T01:40:58.582Z,7.05
2023-04-04T01:43:25.663Z,9.70
2023-04-04T01:45:52.823Z,8.13
2023-04-04T01:48:19.957Z,8.88
2023-04-04T01:50:47.585Z,9.70
2023-04-04T01:53:14.619Z,9.77
2023-04-04T01:55:42.405Z,8.90
2023-04-04T01:58:09.460Z,7.70
2023-04-04T02:00:36.587Z,8.75
2023-04-04T02:03:04.006Z,9.52
2023-04-04T02:05:31.345Z,12.80
2023-04-04T02:07:58.428Z,8.98
2023-04-04T02:10:25.688Z,8.40
2023-04-04T02:12:56.086Z,9.18
2023-04-04T02:15:22.762Z,12.93
2023-04-04T02:17:49.867Z,10.40
2023-04-04T02:20:19.277Z,12.10
2023-04-04T02:22:53.682Z,10.07
2023-04-04T02:25:21.276Z,12.05
2023-04-04T02:27:48.492Z,7.05
2023-04-04T02:30:16.008Z,11.07
2023-04-04T02:32:43.142Z,12.20
2023-04-04T02:35:10.391Z,12.95
2023-04-04T02:37:37.493Z,8.02
2023-04-04T02:40:05.486Z,10.75
2023-04-04T02:42:32.549Z,9.35
2023-04-04T02:44:59.568Z,13.02
2023-04-04T02:47:26.704Z,10.38
2023-04-04T02:49:53.825Z,11.43
2023-04-04T02:52:22.156Z,12.95
2023-04-04T02:54:50.622Z,11.25
2023-04-04T02:57:17.698Z,8.95
2023-04-04T02:59:44.821Z,6.97
2023-04-04T03:02:11.921Z,8.90
2023-04-04T03:04:39.038Z,11.48
2023-04-04T03:07:06.067Z,10.10
2023-04-04T03:09:33.136Z,10.88
2023-04-04T03:12:01.118Z,9.93
2023-04-04T03:14:29.912Z,8.80
2023-04-04T03:16:57.433Z,12.65
2023-04-04T03:19:25.008Z,10.52
2023-04-04T03:21:52.080Z,8.98
2023-04-04T03:24:19.549Z,11.20
2023-04-04T03:26:47.026Z,13.63
2023-04-04T03:29:14.087Z,15.63
2023-04-04T03:31:41.905Z,11.75
2023-04-04T03:34:09.628Z,10.25
2023-04-04T03:36:36.487Z,10.68
2023-04-04T03:39:03.116Z,14.63
2023-04-04T03:41:29.714Z,9.57
2023-04-04T03:43:56.321Z,11.68
2023-04-04T03:46:23.085Z,9.82
2023-04-04T03:48:49.839Z,14.05
2023-04-04T03:51:25.751Z,10.75
2023-04-04T03:53:52.390Z,10.60
2023-04-04T03:56:19.554Z,11.57
2023-04-04T03:58:46.214Z,11.30
2023-04-04T04:01:12.897Z,10.02
2023-04-04T04:03:39.511Z,10.15
2023-04-04T04:06:06.311Z,10.45
2023-04-04T04:08:32.889Z,13.30
2023-04-04T04:11:05.269Z,13.90
2023-04-04T04:13:31.988Z,9.45
2023-04-04T04:15:58.666Z,13.77
2023-04-04T04:18:25.408Z,8.75
2023-04-04T04:20:59.041Z,12.73
2023-04-04T04:25:52.559Z,11.23
2023-04-04T04:28:19.796Z,10.10
2023-04-04T04:30:46.404Z,9.73
2023-04-04T04:33:13.261Z,11.35
2023-04-04T04:35:40.274Z,10.13
2023-04-04T04:38:07.349Z,8.98
2023-04-04T04:40:34.826Z,7.50
2023-04-04T04:43:01.441Z,9.82
2023-04-04T04:45:28.107Z,13.02
2023-04-04T04:50:21.528Z,11.10
2023-04-04T04:52:51.323Z,12.27
2023-04-04T04:55:18.482Z,11.50
2023-04-04T04:57:48.008Z,12.55
2023-04-04T05:00:15.110Z,13.20
2023-04-04T05:02:41.808Z,15.85
2023-04-04T05:05:08.649Z,10.57
2023-04-04T05:07:35.387Z,11.00
2023-04-04T05:10:02.181Z,9.77
2023-04-04T05:12:28.919Z,12.52
2023-04-04T05:14:55.570Z,11.07
2023-04-04T05:17:23.307Z,12.70
2023-04-04T05:19:49.931Z,14.77
2023-04-04T05:22:16.593Z,14.77
2023-04-04T05:24:43.677Z,13.15
2023-04-04T05:27:10.589Z,12.05
2023-04-04T05:29:37.234Z,13.57
2023-04-04T05:32:04.041Z,9.80
2023-04-04T05:34:31.412Z,9.98
2023-04-04T05:36:58.737Z,11.02
2023-04-04T05:39:25.334Z,12.50
2023-04-04T05:41:52.050Z,10.20
2023-04-04T05:44:18.709Z,11.77
2023-04-04T05:46:45.310Z,11.57
2023-04-04T05:49:12.063Z,13.85
2023-04-04T05:51:39.472Z,13.50
2023-04-04T05:54:07.452Z,14.23
2023-04-04T05:56:34.401Z,9.65
2023-04-04T05:59:01.104Z,13.95
2023-04-04T06:01:29.256Z,9.48
2023-04-04T06:04:00.584Z,14.20
2023-04-04T06:06:27.559Z,9.68
2023-04-04T06:08:54.278Z,13.23
2023-04-04T06:11:24.111Z,12.38
2023-04-04T06:13:51.468Z,16.23
2023-04-04T06:16:18.449Z,12.68
2023-04-04T06:18:45.427Z,13.18
2023-04-04T06:21:13.273Z,17.42
2023-04-04T06:23:40.350Z,10.15
2023-04-04T06:26:08.209Z,12.95
2023-04-04T06:28:34.812Z,15.63
2023-04-04T06:31:01.898Z,9.82
2023-04-04T06:33:28.485Z,9.38
2023-04-04T06:35:55.406Z,16.13
2023-04-04T06:38:22.065Z,12.55
2023-04-04T06:40:48.752Z,11.90
2023-04-04T06:43:15.436Z,9.35
2023-04-04T06:45:42.080Z,12.07
2023-04-04T06:48:09.454Z,11.93
2023-04-04T06:50:37.561Z,12.38
2023-04-04T06:53:06.497Z,15.10
2023-04-04T06:55:36.459Z,13.00
2023-04-04T06:58:03.484Z,12.63
2023-04-04T07:00:30.709Z,13.75
2023-04-04T07:03:01.351Z,11.63
2023-04-04T07:05:28.572Z,14.98
2023-04-04T07:07:56.979Z,11.63
2023-04-04T07:10:24.714Z,13.90
2023-04-04T07:12:52.041Z,13.07
2023-04-04T07:15:18.707Z,14.07
2023-04-04T07:17:45.776Z,13.60
2023-04-04T07:20:13.577Z,12.50
2023-04-04T07:22:41.327Z,12.30
2023-04-04T07:25:08.811Z,12.15
2023-04-04T07:27:36.164Z,13.50
2023-04-04T07:30:04.350Z,11.63
2023-04-04T07:32:31.261Z,12.48
2023-04-04T07:34:58.090Z,9.55
2023-04-04T07:37:26.597Z,10.65
2023-04-04T07:39:53.757Z,12.25
2023-04-04T07:42:23.266Z,12.68
2023-04-04T07:44:50.961Z,8.68
2023-04-04T07:47:18.525Z,11.68
2023-04-04T07:49:45.668Z,16.33
2023-04-04T07:52:13.456Z,13.13
2023-04-04T07:54:40.612Z,12.18
2023-04-04T07:57:09.839Z,14.60
2023-04-04T07:59:37.944Z,11.27
2023-04-04T08:02:05.191Z,11.23
2023-04-04T08:04:32.318Z,12.02
2023-04-04T08:06:59.351Z,12.85
2023-04-04T08:09:28.384Z,12.95
2023-04-04T08:11:55.450Z,14.80
2023-04-04T08:14:22.474Z,9.98
2023-04-04T08:16:49.650Z,14.73
2023-04-04T08:19:17.109Z,12.02
2023-04-04T08:21:46.801Z,13.57
2023-04-04T08:24:13.950Z,14.13
2023-04-04T08:26:42.337Z,9.85
2023-04-04T08:29:10.695Z,10.73
2023-04-04T08:31:37.837Z,12.40
2023-04-04T08:34:07.623Z,15.15
2023-04-04T08:36:35.584Z,14.05
2023-04-04T08:39:03.708Z,14.30
2023-04-04T08:41:35.583Z,13.13
2023-04-04T08:44:04.330Z,10.63
2023-04-04T08:46:31.965Z,13.35
2023-04-04T08:49:00.221Z,10.25
2023-04-04T08:51:30.003Z,12.77
2023-04-04T08:53:57.124Z,11.30
2023-04-04T08:56:24.959Z,10.27
2023-04-04T08:58:52.073Z,11.38
2023-04-04T09:01:19.180Z,11.63
2023-04-04T09:03:46.503Z,11.90
2023-04-04T09:06:14.252Z,12.73
2023-04-04T09:08:42.094Z,12.07
2023-04-04T09:11:09.635Z,9.73
2023-04-04T09:13:37.906Z,8.25
2023-04-04T09:16:06.030Z,10.02
2023-04-04T09:18:33.139Z,14.57
2023-04-04T09:21:00.490Z,7.30
2023-04-04T09:23:30.534Z,11.38
2023-04-04T09:28:28.616Z,10.88
2023-04-04T09:30:55.952Z,13.88
2023-04-04T09:33:24.624Z,8.95
2023-04-04T09:36:12.702Z,11.27
2023-04-04T09:38:43.059Z,9.15
2023-04-04T09:41:11.007Z,9.63
2023-04-04T09:43:39.964Z,12.15
2023-04-04T09:46:07.985Z,11.73
2023-04-04T09:48:36.424Z,8.68
2023-04-04T09:51:07.376Z,10.10
2023-04-04T09:53:37.913Z,11.93
2023-04-04T09:56:05.096Z,8.85
2023-04-04T09:58:35.957Z,13.43
2023-04-04T10:01:06.407Z,8.38
2023-04-04T10:03:33.542Z,9.25
2023-04-04T10:06:01.404Z,9.35
2023-04-04T10:08:29.826Z,9.60
2023-04-04T10:11:10.459Z,15.10
2023-04-04T10:13:41.798Z,11.35
2023-04-04T10:16:09.465Z,9.60
2023-04-04T10:18:37.162Z,11.02
2023-04-04T10:23:38.391Z,14.88
2023-04-04T10:26:05.072Z,10.15
2023-04-04T10:28:32.647Z,7.70
2023-04-04T10:31:19.966Z,11.15
2023-04-04T10:34:02.124Z,11.85
2023-04-04T10:36:36.492Z,12.38
2023-04-04T10:39:33.893Z,7.88
2023-04-04T10:42:04.148Z,10.90
2023-04-04T10:44:38.012Z,12.35
2023-04-04T10:49:37.576Z,17.02
2023-04-04T10:52:04.481Z,12.98
2023-04-04T10:54:31.218Z,17.25
2023-04-04T10:57:02.088Z,12.57
2023-04-04T10:59:28.899Z,10.88
2023-04-04T11:01:58.613Z,10.60
2023-04-04T11:04:33.938Z,9.00
2023-04-04T11:07:19.212Z,12.38
2023-04-04T11:09:54.308Z,9.70
2023-04-04T11:12:36.527Z,12.05
2023-04-04T11:15:04.047Z,13.88
2023-04-04T11:17:57.630Z,11.40
2023-04-04T11:20:30.386Z,9.47
2023-04-04T11:23:04.080Z,9.38
2023-04-04T11:25:36.029Z,15.93
2023-04-04T11:28:07.877Z,14.57
2023-04-04T11:30:48.516Z,10.63
2023-04-04T11:33:27.522Z,9.63
2023-04-04T11:35:58.917Z,13.30
2023-04-04T11:38:27.185Z,9.20
2023-04-04T11:40:54.958Z,10.70
2023-04-04T11:43:22.305Z,13.00
2023-04-04T11:45:49.541Z,9.73
2023-04-04T11:48:18.830Z,10.57
2023-04-04T11:50:51.194Z,10.13
2023-04-04T11:53:17.944Z,8.38
2023-04-04T11:55:48.280Z,8.80
2023-04-04T11:58:16.936Z,13.82
2023-04-04T12:00:44.422Z,10.50
2023-04-04T12:03:12.405Z,10.70
2023-04-04T12:05:42.007Z,8.98
2023-04-04T12:08:11.121Z,10.20
2023-04-04T12:10:40.377Z,10.65
2023-04-04T12:13:08.841Z,11.93
2023-04-04T12:15:36.931Z,12.55
2023-04-04T12:18:07.622Z,10.02
2023-04-04T12:20:37.580Z,10.27
2023-04-04T12:23:04.795Z,10.90
2023-04-04T12:25:33.990Z,11.35
2023-04-04T12:28:02.553Z,9.10
2023-04-04T12:30:29.511Z,11.18
2023-04-04T12:32:56.985Z,9.85
2023-04-04T12:35:23.824Z,11.20
2023-04-04T12:38:01.557Z,13.32
2023-04-04T12:40:38.720Z,11.05
2023-04-04T12:43:07.657Z,11.35
2023-04-04T12:45:41.559Z,8.68
2023-04-04T12:48:17.965Z,11.55
2023-04-04T12:50:53.157Z,10.38
2023-04-04T12:53:28.927Z,9.90
2023-04-04T12:56:03.056Z,9.65
2023-04-04T12:58:29.898Z,11.77
2023-04-04T13:01:00.647Z,10.85
2023-04-04T13:03:28.625Z,8.38
2023-04-04T13:05:55.427Z,12.57
2023-04-04T13:08:22.244Z,10.70
2023-04-04T13:11:04.418Z,10.77
2023-04-04T13:13:43.621Z,9.75
2023-04-04T13:16:12.381Z,14.02
2023-04-04T13:18:43.087Z,8.88
2023-04-04T13:21:13.168Z,7.93
2023-04-04T13:23:41.347Z,10.40
2023-04-04T13:26:09.525Z,13.30
2023-04-04T13:28:36.676Z,10.50
2023-04-04T13:31:07.818Z,9.85
2023-04-04T13:33:35.577Z,8.30
2023-04-04T13:36:02.643Z,9.77
2023-04-04T13:38:30.197Z,11.48
2023-04-04T13:41:00.444Z,11.15
2023-04-04T13:43:27.545Z,12.23
2023-04-04T13:45:55.580Z,12.02
2023-04-04T13:48:22.748Z,11.68
2023-04-04T13:50:53.008Z,8.77
2023-04-04T13:53:20.555Z,10.00
2023-04-04T13:56:13.265Z,14.30
2023-04-04T13:58:34.155Z,10.18
2023-04-04T14:01:06.752Z,9.15
2023-04-04T14:03:33.587Z,8.75
2023-04-04T14:06:06.299Z,8.50
2023-04-04T14:08:36.971Z,9.55
2023-04-04T14:11:03.693Z,6.60
2023-04-04T14:13:30.470Z,8.40
2023-04-04T14:15:57.124Z,9.80
2023-04-04T14:18:23.811Z,8.57
2023-04-04T14:20:50.434Z,8.55
2023-04-04T14:23:17.034Z,8.52
2023-04-04T14:25:44.041Z,8.55
2023-04-04T14:28:11.237Z,10.98
2023-04-04T14:30:38.146Z,11.45
2023-04-04T14:33:04.772Z,11.00
2023-04-04T14:35:31.449Z,10.27
2023-04-04T14:37:58.069Z,11.07
2023-04-04T14:40:24.648Z,8.10
2023-04-04T14:42:51.270Z,9.93
2023-04-04T14:45:18.103Z,8.15
2023-04-04T14:47:44.870Z,10.30
2023-04-04T14:50:11.958Z,10.38
2023-04-04T14:52:38.564Z,9.43
2023-04-04T14:55:05.970Z,8.95
2023-04-04T14:57:39.352Z,9.50
2023-04-04T15:00:15.911Z,8.95
2023-04-04T15:02:42.552Z,9.32
2023-04-04T15:05:09.572Z,8.07
2023-04-04T15:07:36.446Z,11.70
2023-04-04T15:10:03.529Z,8.13
2023-04-04T15:12:30.169Z,9.15
2023-04-04T15:14:56.798Z,9.82
2023-04-04T15:17:23.495Z,8.70
2023-04-04T15:19:50.191Z,9.30
2023-04-04T15:22:16.832Z,8.40
2023-04-04T15:24:43.510Z,10.68
2023-04-04T15:27:10.102Z,11.13
2023-04-04T15:29:36.871Z,7.55
2023-04-04T15:32:03.580Z,7.47
2023-04-04T15:34:30.253Z,10.60
2023-04-04T15:36:59.472Z,8.38
2023-04-04T15:39:26.592Z,9.23
2023-04-04T15:41:53.617Z,10.82
2023-04-04T15:44:20.241Z,11.02
2023-04-04T15:46:46.807Z,13.07
2023-04-04T15:49:13.474Z,9.80
2023-04-04T15:51:42.876Z,10.77
2023-04-04T15:54:09.491Z,8.63
2023-04-04T15:56:38.200Z,9.55
2023-04-04T15:59:06.058Z,11.05
2023-04-04T16:01:34.042Z,9.35
2023-04-04T16:04:02.208Z,10.43
2023-04-04T16:06:31.101Z,9.13
2023-04-04T16:08:57.946Z,8.50
2023-04-04T16:11:24.646Z,9.43
2023-04-04T16:13:51.302Z,6.47
2023-04-04T16:16:18.470Z,10.90
2023-04-04T16:18:45.321Z,8.63
2023-04-04T16:21:11.998Z,10.07
2023-04-04T16:23:43.225Z,9.15
2023-04-04T16:26:10.666Z,12.45
2023-04-04T16:28:37.319Z,11.50
2023-04-04T16:31:04.096Z,11.90
2023-04-04T16:33:30.785Z,9.27
2023-04-04T16:35:57.423Z,10.95
2023-04-04T16:38:24.077Z,13.63
2023-04-04T16:40:50.929Z,9.48
2023-04-04T16:43:17.532Z,9.25
2023-04-04T16:45:44.199Z,11.80
2023-04-04T16:48:10.952Z,10.02
2023-04-04T16:50:37.722Z,9.48
2023-04-04T16:53:04.372Z,11.43
2023-04-04T16:55:31.079Z,10.38
2023-04-04T16:57:58.211Z,12.88
2023-04-04T17:00:25.279Z,9.50
2023-04-04T17:02:51.962Z,10.77
2023-04-04T17:05:18.769Z,9.52
2023-04-04T17:07:45.502Z,10.40
2023-04-04T17:10:12.386Z,8.82
2023-04-04T17:12:39.338Z,8.77
2023-04-04T17:15:07.379Z,10.95
2023-04-04T17:17:34.108Z,12.57
2023-04-04T17:20:00.779Z,12.70
2023-04-04T17:22:27.562Z,10.63
2023-04-04T17:24:54.208Z,11.73
2023-04-04T17:27:20.893Z,13.70
2023-04-04T17:29:47.894Z,10.80
2023-04-04T17:32:15.071Z,13.63
2023-04-04T17:34:42.084Z,10.50
2023-04-04T17:37:13.132Z,14.63
2023-04-04T17:39:39.748Z,11.07
2023-04-04T17:42:06.403Z,11.23
2023-04-04T17:44:33.055Z,10.98
2023-04-04T17:47:00.317Z,12.45
2023-04-04T17:49:27.066Z,11.88
2023-04-04T17:51:53.723Z,13.70
2023-04-04T17:54:23.066Z,15.50
2023-04-04T17:56:50.254Z,11.35
2023-04-04T17:59:17.445Z,11.85
2023-04-04T18:01:44.775Z,15.15
2023-04-04T18:04:12.096Z,11.95
2023-04-04T18:06:40.433Z,11.98
2023-04-04T18:09:10.055Z,12.65
2023-04-04T18:11:37.442Z,16.30
2023-04-04T18:14:04.646Z,14.65
2023-04-04T18:16:39.073Z,12.13
2023-04-04T18:19:07.130Z,11.35
2023-04-04T18:21:34.230Z,12.82
2023-04-04T18:24:01.459Z,13.13
2023-04-04T18:26:28.642Z,15.90
2023-04-04T18:28:55.846Z,10.10
2023-04-04T18:31:22.547Z,9.23
2023-04-04T18:33:49.753Z,12.13
2023-04-04T18:36:17.556Z,11.25
2023-04-04T18:38:45.374Z,9.90
2023-04-04T18:41:12.140Z,14.82
2023-04-04T18:43:38.778Z,13.25
2023-04-04T18:46:05.901Z,14.10
2023-04-04T18:48:33.562Z,14.43
2023-04-04T18:51:00.595Z,14.20
2023-04-04T18:53:30.681Z,15.40
2023-04-04T18:55:58.217Z,13.25
2023-04-04T18:58:26.532Z,12.73
2023-04-04T19:00:54.342Z,11.35
2023-04-04T19:03:21.993Z,12.23
2023-04-04T19:05:49.259Z,13.48
2023-04-04T19:08:17.299Z,14.00
2023-04-04T19:10:47.140Z,13.45
2023-04-04T19:13:15.104Z,16.83
2023-04-04T19:15:42.747Z,12.50
2023-04-04T19:18:10.577Z,14.98
2023-04-04T19:20:37.379Z,12.57
2023-04-04T19:23:04.035Z,17.73
2023-04-04T19:25:30.888Z,15.43
2023-04-04T19:27:58.309Z,13.35
2023-04-04T19:30:44.392Z,16.13
2023-04-04T19:33:21.520Z,14.57
2023-04-04T19:35:50.787Z,16.63
2023-04-04T19:38:28.353Z,15.15
2023-04-04T19:40:59.531Z,15.30
2023-04-04T19:43:27.359Z,16.60
2023-04-04T19:45:56.292Z,20.10
2023-04-04T19:48:42.577Z,18.42
2023-04-04T19:51:15.567Z,16.05
2023-04-04T19:53:43.374Z,11.40
2023-04-04T19:56:12.000Z,14.70
2023-04-04T19:58:39.333Z,15.27
2023-04-04T20:01:07.077Z,15.75
2023-04-04T20:03:36.793Z,15.75
2023-04-04T20:06:14.011Z,17.52
2023-04-04T20:08:46.634Z,13.57
2023-04-04T20:11:13.896Z,18.15
2023-04-04T20:13:41.074Z,17.08
2023-04-04T20:16:09.346Z,15.88
2023-04-04T20:18:37.793Z,14.23
2023-04-04T20:21:04.795Z,15.70
2023-04-04T20:23:33.026Z,14.65
2023-04-04T20:26:05.277Z,14.10
2023-04-04T20:28:32.554Z,14.73
2023-04-04T20:31:01.924Z,13.93
2023-04-04T20:33:39.113Z,17.75
2023-04-04T20:36:13.822Z,16.27
2023-04-04T20:38:41.851Z,18.27
2023-04-04T20:41:15.131Z,16.15
2023-04-04T20:43:44.865Z,16.58
2023-04-04T20:46:13.080Z,15.85
2023-04-04T20:48:40.698Z,15.23
2023-04-04T20:51:10.891Z,16.05
2023-04-04T20:53:37.957Z,18.40
2023-04-04T20:56:11.072Z,17.48
2023-04-04T20:58:38.516Z,19.88
2023-04-04T21:01:06.989Z,17.60
2023-04-04T21:03:36.559Z,17.08
2023-04-04T21:06:14.099Z,16.80
2023-04-04T21:08:44.277Z,17.13
2023-04-04T21:11:12.007Z,18.25
2023-04-04T21:13:40.778Z,16.50
2023-04-04T21:16:07.946Z,15.73
2023-04-04T21:18:35.732Z,17.30
2023-04-04T21:21:12.617Z,14.95
2023-04-04T21:23:44.273Z,13.60
2023-04-04T21:26:15.296Z,14.88
2023-04-04T21:28:45.881Z,16.10
2023-04-04T21:31:14.198Z,15.70
2023-04-04T21:33:48.935Z,17.77
2023-04-04T21:36:19.033Z,17.63
2023-04-04T21:38:46.198Z,14.40
2023-04-04T21:41:23.944Z,17.20
2023-04-04T21:43:51.457Z,14.55
2023-04-04T21:46:18.560Z,16.45
2023-04-04T21:48:45.636Z,16.17
2023-04-04T21:51:12.673Z,15.40
2023-04-04T21:53:39.727Z,15.27
2023-04-04T21:56:06.771Z,14.95
2023-04-04T21:58:33.841Z,16.88
2023-04-04T22:01:01.284Z,16.42
2023-04-04T22:03:28.335Z,16.33
2023-04-04T22:05:55.423Z,18.60
2023-04-04T22:08:22.503Z,18.17
2023-04-04T22:10:52.540Z,19.63
2023-04-04T22:13:22.393Z,17.75
2023-04-04T22:15:52.490Z,17.58
2023-04-04T22:18:30.364Z,19.75
2023-04-04T22:20:58.134Z,14.80
2023-04-04T22:23:25.508Z,14.20
2023-04-04T22:25:52.600Z,16.50
2023-04-04T22:28:24.665Z,20.98
2023-04-04T22:30:51.988Z,18.48
2023-04-04T22:33:19.004Z,17.98
2023-04-04T22:35:46.365Z,15.75
2023-04-04T22:38:14.472Z,15.23
2023-04-04T22:40:42.015Z,19.05
2023-04-04T22:43:09.549Z,19.52
2023-04-04T22:45:36.774Z,19.13
2023-04-04T22:48:04.333Z,16.50
2023-04-04T22:50:31.381Z,16.00
2023-04-04T22:52:58.777Z,18.63
2023-04-04T22:55:26.858Z,14.63
2023-04-04T22:57:53.988Z,17.88
2023-04-04T23:00:21.132Z,20.20
2023-04-04T23:02:49.262Z,16.38
2023-04-04T23:05:17.500Z,15.25
2023-04-04T23:07:45.565Z,19.63
2023-04-04T23:10:13.903Z,16.58
2023-04-04T23:12:41.059Z,18.05
2023-04-04T23:15:08.529Z,14.80
2023-04-04T23:17:38.663Z,17.35
2023-04-04T23:20:09.512Z,15.48
2023-04-04T23:22:37.674Z,18.73
2023-04-04T23:25:07.961Z,16.88
2023-04-04T23:27:35.410Z,18.02
2023-04-04T23:30:03.870Z,17.67
2023-04-04T23:32:32.040Z,17.15
2023-04-04T23:34:59.360Z,19.95
2023-04-04T23:37:26.543Z,18.67
2023-04-04T23:39:53.610Z,17.33
2023-04-04T23:42:20.723Z,17.25
2023-04-04T23:44:47.733Z,18.02
2023-04-04T23:47:14.738Z,17.02
2023-04-04T23:49:41.767Z,17.75
2023-04-04T23:52:08.889Z,19.70
2023-04-04T23:54:36.004Z,16.95
2023-04-04T23:57:03.049Z,17.77
2023-04-04T23:59:30.102Z,17.23
